首页
METAR-TAF:

METAR-TAF

机场 :

倫敦希斯路機場, 英格兰

纬度: 51-29N, 经度: 000-27W, 海拔: 24米

当前天气观测

该预报发布于22分钟前的17:50 UTC
风速16节,风向西南
温度 14°C
湿度 82%
气压 1009 hPa
能见度10公里或以上
多云层高于1300英尺

METAR: EGLL 241750Z AUTO 22016KT 9999 BKN013 14/11 Q1009

时间: 19:12 (18:12 UTC)

预报

该预报发布于1小时和8分钟前的17:04 UTC
预报有效从24日的 18点(UTC)到 25日的 24点(UTC)
风速12节,风向南转西南
能见度10公里或以上
多云层高于1200英尺
短暂存在
从 24日的 18点(UTC)到 24日的 24点(UTC)
风速15节,风向西南,有时为25节阵风
能見度: 4000
多云层高于800英尺
雨, 毛毛雨
几率 40% :
短暂存在
从 24日的 18点(UTC)到 24日的 22点(UTC)
散云层高于1200英尺
成为
从 24日的 22点(UTC)到 25日的 01点(UTC)
风速10节,风向西
散云层高于1500英尺
短暂存在
从 25日的 11点(UTC)到 25日的 19点(UTC)
风速16节,风向西,有时为26节阵风
能見度: 7000
阵雨
几率 30% :
短暂存在
从 25日的 14点(UTC)到 25日的 18点(UTC)
能見度: 4000
大阵雨

TAF: EGLL 241704Z 2418/2524 21012KT 9999 BKN012 TEMPO 2418/2424 23015G25KT 4000 RADZ BKN008 PROB40 TEMPO 2418/2422 SCT012 BECMG 2422/2501 27010KT SCT015 TEMPO 2511/2519 26016G26KT 7000 SHRA PROB30 TEMPO 2514/2518 4000 +SHRA

超过4000个机场的气象观测和天气预报(METAR&TAF报告)。

可查询的气象台以黄色和红色小点在地图上表示。

将鼠标移到小点上方,可查看气象台名称。

然后点击查看天气观测和预报。

如需切换地图:点击带黑十字的绿色按钮放大地图;点击带横线的绿色按钮缩小地图;或者点击绿色箭头查看邻近地区的地图。


METAR-TAF: